KEED/EED METAR and TAF weather

Enter ICAO airport designator
Station Type Date Time Source
KEED METAR 2019/08/24 08:56 UTC NOAA

KEED 240856Z AUTO 15007KT 10SM CLR 33/11 A2985 RMK AO2 SLP069 T03280106 51019


Station Type Date Time Source
KEED Decoded METAR 2019/08/24 08:56 UTC NOAA

Station name not available
Aug 24, 2019 - 04:56 AM EDT / 2019.08.24 0856 UTC
Wind: from the SSE (150 degrees) at 8 MPH (7 KT):0
Visibility: 10 mile(s):0
Sky conditions: clear
Temperature: 91.0 F (32.8 C)
Dew Point: 51.1 F (10.6 C)
Relative Humidity: 25%
Pressure (altimeter): 29.85 in. Hg (1010 hPa)
Pressure tendency: 0.06 inches (1.9 hPa) higher than three hours ago
ob: KEED 240856Z AUTO 15007KT 10SM CLR 33/11 A2985 RMK AO2 SLP069 T03280106 51019
cycle: 9

Station Type Date Time Source
KEED TAF 2019/08/24 06:28 UTC NOAA

TAF KEED 240525Z 2406/2506 19011KT P6SM SCT250
FM240900 16008KT P6SM SKC
FM241600 16010KT P6SM SKC
FM242300 20010KT P6SM SKC

Example: see airport list